Time;durP1;ratioP1;P1;durP2;ratioP2;P2;SDS_P1;SDS_P2;PMS_P1;PMS_P2;Temp;Humidity;BMP_temperature;BMP_pressure;BME280_temperature;BME280_humidity;BME280_pressure;Samples;Min_cycle;Max_cycle;Signal;HPM_P1;HPM_P2
2023/05/20 00:01:16;;;;;;;1.55;0.63;;;;;;;;;;12795398;23;20021;-89
2023/05/20 00:06:20;;;;;;;0.75;0.68;;;;;;;;;;12793162;23;20032;-90
2023/05/20 00:11:25;;;;;;;0.82;0.70;;;;;;;;;;12768495;23;20399;-89
2023/05/20 00:16:28;;;;;;;1.42;0.77;;;;;;;;;;12794961;23;20083;-89
2023/05/20 00:21:33;;;;;;;0.88;0.60;;;;;;;;;;12792320;23;20033;-88
2023/05/20 00:26:37;;;;;;;1.48;0.70;;;;;;;;;;12794663;23;20064;-89
2023/05/20 00:31:40;;;;;;;0.68;0.68;;;;;;;;;;12794741;23;20477;-89
2023/05/20 00:36:45;;;;;;;2.78;0.60;;;;;;;;;;12768884;23;20031;-89
2023/05/20 00:41:49;;;;;;;0.55;0.47;;;;;;;;;;12792834;23;20040;-89
2023/05/20 00:46:53;;;;;;;0.65;0.55;;;;;;;;;;12770991;23;20032;-89
2023/05/20 00:51:58;;;;;;;1.30;0.70;;;;;;;;;;12771638;23;20029;-88
2023/05/20 00:57:03;;;;;;;0.60;0.60;;;;;;;;;;12771110;23;20047;-89
2023/05/20 01:02:07;;;;;;;0.93;0.70;;;;;;;;;;12771087;23;20475;-90
2023/05/20 01:07:12;;;;;;;1.08;0.85;;;;;;;;;;12811083;23;20032;-89
2023/05/20 01:12:23;;;;;;;1.90;0.73;;;;;;;;;;12770524;23;20025;-89
2023/05/20 01:17:29;;;;;;;2.85;1.00;;;;;;;;;;12770140;23;20025;-89
2023/05/20 01:22:36;;;;;;;1.48;0.80;;;;;;;;;;12809246;23;20063;-89
2023/05/20 01:27:40;;;;;;;0.90;0.80;;;;;;;;;;12808905;23;20025;-89
2023/05/20 01:32:47;;;;;;;0.93;0.85;;;;;;;;;;12770447;23;20028;-89
2023/05/20 01:37:53;;;;;;;1.00;0.80;;;;;;;;;;12808217;23;20458;-89
2023/05/20 01:42:59;;;;;;;1.23;0.80;;;;;;;;;;12807248;23;20025;-88
2023/05/20 01:48:11;;;;;;;1.10;0.50;;;;;;;;;;12769776;23;20025;-89
2023/05/20 01:53:15;;;;;;;0.47;0.47;;;;;;;;;;12770597;23;20392;-89
2023/05/20 01:58:19;;;;;;;2.58;0.65;;;;;;;;;;12794661;23;20029;-89
2023/05/20 02:03:23;;;;;;;1.42;0.60;;;;;;;;;;12770511;23;20028;-89
2023/05/20 02:08:27;;;;;;;0.50;0.50;;;;;;;;;;12769330;23;20075;-89
2023/05/20 02:13:31;;;;;;;0.85;0.63;;;;;;;;;;12770912;23;20024;-89
2023/05/20 02:18:35;;;;;;;1.02;0.73;;;;;;;;;;12795262;23;20036;-89
2023/05/20 02:23:40;;;;;;;1.65;0.80;;;;;;;;;;12770802;23;20359;-89
2023/05/20 02:28:45;;;;;;;0.80;0.80;;;;;;;;;;12770561;23;20025;-89
2023/05/20 02:33:49;;;;;;;1.00;0.77;;;;;;;;;;12735093;23;20029;-89
2023/05/20 02:38:55;;;;;;;1.08;0.70;;;;;;;;;;12708485;23;20025;-89
2023/05/20 02:43:59;;;;;;;0.70;0.70;;;;;;;;;;12733649;23;20555;-89
2023/05/20 02:49:03;;;;;;;1.35;0.60;;;;;;;;;;12733755;23;20036;-90
2023/05/20 02:54:08;;;;;;;0.93;0.80;;;;;;;;;;12707822;23;20032;-89
2023/05/20 02:59:12;;;;;;;1.80;0.93;;;;;;;;;;12707743;23;20100;-88
2023/05/20 03:04:17;;;;;;;1.42;0.85;;;;;;;;;;12708425;23;20029;-89
2023/05/20 03:09:22;;;;;;;1.23;0.80;;;;;;;;;;12708130;23;20026;-90
2023/05/20 03:14:26;;;;;;;1.08;0.82;;;;;;;;;;12708686;23;20261;-89
2023/05/20 03:19:29;;;;;;;1.27;0.90;;;;;;;;;;12709021;23;20048;-88
2023/05/20 03:24:34;;;;;;;2.63;0.68;;;;;;;;;;12708258;23;20373;-89
2023/05/20 03:29:38;;;;;;;1.50;0.88;;;;;;;;;;12708151;23;20025;-89
2023/05/20 03:34:41;;;;;;;1.08;0.95;;;;;;;;;;12708368;23;20029;-89
2023/05/20 03:39:46;;;;;;;1.15;0.80;;;;;;;;;;12708623;23;20033;-88
2023/05/20 03:44:50;;;;;;;0.70;0.70;;;;;;;;;;12708397;23;20028;-88
2023/05/20 03:49:54;;;;;;;1.38;0.80;;;;;;;;;;12707883;23;20080;-89
2023/05/20 03:54:59;;;;;;;0.95;0.95;;;;;;;;;;12708132;23;20068;-89
2023/05/20 04:00:08;;;;;;;1.67;0.90;;;;;;;;;;12708039;23;20104;-89
2023/05/20 04:05:18;;;;;;;1.97;0.90;;;;;;;;;;12733504;23;20028;-89
2023/05/20 04:10:24;;;;;;;2.47;1.02;;;;;;;;;;12707615;23;20053;-90
2023/05/20 04:15:28;;;;;;;1.58;1.08;;;;;;;;;;12707891;23;20279;-90
2023/05/20 04:20:33;;;;;;;1.90;1.05;;;;;;;;;;12710250;23;20092;-89
2023/05/20 04:25:40;;;;;;;2.20;1.35;;;;;;;;;;12772057;23;20025;-89
2023/05/20 04:30:43;;;;;;;;;;;;;;;;;;12773560;23;20401;-88
2023/05/20 04:35:48;;;;;;;1.52;0.82;;;;;;;;;;12797690;23;19916;-89
2023/05/20 04:40:53;;;;;;;1.67;1.23;;;;;;;;;;12772637;23;20021;-89
2023/05/20 04:45:56;;;;;;;1.77;1.23;;;;;;;;;;12772924;23;20027;-88
2023/05/20 04:51:02;;;;;;;1.15;1.02;;;;;;;;;;12772087;23;20402;-90
2023/05/20 04:56:08;;;;;;;2.25;1.10;;;;;;;;;;12772731;23;20021;-89
2023/05/20 05:01:11;;;;;;;1.48;1.20;;;;;;;;;;12771814;23;20056;-89
2023/05/20 05:06:17;;;;;;;1.10;1.00;;;;;;;;;;12792286;23;20028;-87
2023/05/20 05:11:22;;;;;;;1.70;1.20;;;;;;;;;;12814779;23;20252;-86
2023/05/20 05:16:25;;;;;;;2.30;1.20;;;;;;;;;;12815339;23;20020;-87
2023/05/20 05:21:29;;;;;;;1.50;1.20;;;;;;;;;;12841113;23;20025;-87
2023/05/20 05:26:34;;;;;;;1.10;0.88;;;;;;;;;;12841732;23;20038;-86
2023/05/20 05:31:37;;;;;;;1.02;0.90;;;;;;;;;;12814135;23;20220;-89
2023/05/20 05:36:41;;;;;;;3.13;1.15;;;;;;;;;;12820830;23;20036;-90
2023/05/20 05:41:46;;;;;;;1.15;0.95;;;;;;;;;;12820323;23;20071;-88
2023/05/20 05:46:50;;;;;;;2.40;1.67;;;;;;;;;;12820486;23;20036;-90
2023/05/20 05:51:54;;;;;;;1.20;0.98;;;;;;;;;;12820421;23;20067;-91
2023/05/20 05:56:58;;;;;;;2.05;1.50;;;;;;;;;;12820798;23;20021;-88
2023/05/20 06:02:05;;;;;;;3.05;1.58;;;;;;;;;;12820717;23;20024;-88
2023/05/20 06:07:10;;;;;;;1.33;1.15;;;;;;;;;;12819480;23;20414;-91
2023/05/20 06:12:17;;;;;;;1.20;1.10;;;;;;;;;;12818842;23;20025;-88
2023/05/20 06:17:21;;;;;;;2.33;1.48;;;;;;;;;;12818429;23;20020;-93
2023/05/20 06:22:25;;;;;;;1.33;1.02;;;;;;;;;;12818615;23;20016;-89
2023/05/20 06:27:30;;;;;;;1.85;1.52;;;;;;;;;;12844551;23;20024;-89
2023/05/20 06:32:34;;;;;;;2.05;1.30;;;;;;;;;;12819467;23;20024;-89
2023/05/20 06:37:38;;;;;;;2.85;1.40;;;;;;;;;;12819697;23;20492;-88
2023/05/20 06:42:43;;;;;;;2.10;1.33;;;;;;;;;;12818546;23;20024;-89
2023/05/20 06:47:48;;;;;;;3.00;1.08;;;;;;;;;;12818422;23;20428;-89
2023/05/20 06:52:52;;;;;;;2.95;2.25;;;;;;;;;;12843987;23;20507;-90
2023/05/20 06:57:58;;;;;;;2.47;1.80;;;;;;;;;;12816341;23;20024;-90
2023/05/20 07:03:04;;;;;;;2.55;2.00;;;;;;;;;;12817426;23;20024;-91
2023/05/20 07:08:08;;;;;;;2.08;1.70;;;;;;;;;;12817712;23;20652;-90
2023/05/20 07:13:15;;;;;;;1.85;1.50;;;;;;;;;;12816470;23;20021;-90
2023/05/20 07:18:20;;;;;;;3.70;1.90;;;;;;;;;;12818303;23;20036;-90
2023/05/20 07:23:28;;;;;;;2.10;1.70;;;;;;;;;;12818754;23;20025;-91
2023/05/20 07:28:35;;;;;;;2.10;1.90;;;;;;;;;;12820071;23;20484;-90
2023/05/20 07:33:38;;;;;;;;;;;;;;;;;;12823640;23;20027;-89
2023/05/20 07:38:42;;;;;;;3.22;1.88;;;;;;;;;;12843794;23;20383;-90
2023/05/20 07:43:55;;;;;;;2.60;1.90;;;;;;;;;;12843302;23;20028;-92
2023/05/20 07:48:58;;;;;;;2.17;1.92;;;;;;;;;;12840084;23;20024;-90
2023/05/20 07:54:02;;;;;;;2.80;1.90;;;;;;;;;;12817013;23;20027;-87
2023/05/20 07:59:07;;;;;;;2.97;2.05;;;;;;;;;;12814367;23;20103;-88
2023/05/20 08:04:17;;;;;;;2.72;2.13;;;;;;;;;;12810991;23;20021;-87
2023/05/20 08:09:21;;;;;;;2.17;1.90;;;;;;;;;;12835600;23;20025;-87
2023/05/20 08:14:30;;;;;;;3.10;2.50;;;;;;;;;;12835920;23;20027;-87
2023/05/20 08:19:34;;;;;;;3.00;2.20;;;;;;;;;;12829052;23;20311;-88
2023/05/20 08:24:38;;;;;;;4.28;3.20;;;;;;;;;;12830811;23;20025;-87
2023/05/20 08:29:44;;;;;;;3.65;2.70;;;;;;;;;;12838119;23;20025;-85
2023/05/20 08:34:48;;;;;;;2.78;2.22;;;;;;;;;;12838969;23;20012;-87
2023/05/20 08:39:52;;;;;;;3.28;2.50;;;;;;;;;;12838084;23;20051;-89
2023/05/20 08:44:59;;;;;;;2.72;2.30;;;;;;;;;;12835819;23;20021;-86
2023/05/20 08:50:08;;;;;;;4.38;3.53;;;;;;;;;;12836697;23;20028;-86
2023/05/20 08:55:15;;;;;;;4.22;2.80;;;;;;;;;;12836430;23;20020;-86
2023/05/20 09:00:22;;;;;;;6.22;3.42;;;;;;;;;;12836006;23;20025;-85
2023/05/20 09:05:26;;;;;;;3.70;2.78;;;;;;;;;;12875096;23;20090;-86
2023/05/20 09:10:29;;;;;;;3.28;2.50;;;;;;;;;;12815326;23;20036;-86
2023/05/20 09:15:35;;;;;;;5.25;3.25;;;;;;;;;;12877333;23;20036;-85
2023/05/20 09:20:39;;;;;;;4.55;3.50;;;;;;;;;;12840371;23;20028;-87
2023/05/20 09:25:43;;;;;;;3.67;2.33;;;;;;;;;;12841216;23;20016;-86
2023/05/20 09:30:50;;;;;;;3.67;2.83;;;;;;;;;;12812397;23;20024;-86
2023/05/20 09:35:53;;;;;;;3.22;2.60;;;;;;;;;;12838935;23;20017;-86
2023/05/20 09:41:00;;;;;;;3.58;2.75;;;;;;;;;;12858376;23;20329;-85
2023/05/20 09:46:05;;;;;;;5.22;3.30;;;;;;;;;;12841661;23;20399;-85
2023/05/20 09:51:10;;;;;;;3.30;2.63;;;;;;;;;;12837940;23;20051;-85
2023/05/20 09:56:14;;;;;;;4.90;2.20;;;;;;;;;;12839572;23;20024;-85
2023/05/20 10:01:19;;;;;;;6.13;2.92;;;;;;;;;;12838106;23;20112;-91
2023/05/20 10:06:37;;;;;;;3.05;2.63;;;;;;;;;;12846499;23;20016;-88
2023/05/20 10:11:47;;;;;;;2.70;2.03;;;;;;;;;;12869876;23;20047;-88
2023/05/20 10:16:58;;;;;;;5.10;2.70;;;;;;;;;;12844884;23;20538;-90
2023/05/20 10:22:02;;;;;;;3.75;2.65;;;;;;;;;;12866292;23;20515;-90
2023/05/20 10:27:13;;;;;;;3.53;2.70;;;;;;;;;;12841821;23;20030;-88
2023/05/20 10:32:26;;;;;;;4.63;2.72;;;;;;;;;;12839333;23;20400;-88
2023/05/20 10:37:32;;;;;;;4.22;2.63;;;;;;;;;;12838924;23;20020;-86
2023/05/20 10:42:35;;;;;;;4.50;2.92;;;;;;;;;;12839952;23;20559;-86
2023/05/20 10:47:55;;;;;;;4.05;3.47;;;;;;;;;;12842163;23;20032;-89
2023/05/20 10:53:05;;;;;;;3.90;2.97;;;;;;;;;;12851010;23;20024;-86
2023/05/20 10:58:10;;;;;;;4.28;3.67;;;;;;;;;;12838945;23;20083;-87
2023/05/20 11:03:17;;;;;;;3.38;2.80;;;;;;;;;;12837641;23;20364;-86
2023/05/20 11:08:20;;;;;;;3.95;3.38;;;;;;;;;;12755017;23;20025;-81
2023/05/20 11:13:31;;;;;;;3.03;2.67;;;;;;;;;;12733832;23;20029;-82
2023/05/20 11:18:36;;;;;;;3.80;2.50;;;;;;;;;;12724072;23;20509;-82
2023/05/20 11:23:39;;;;;;;4.82;3.45;;;;;;;;;;12727823;23;20029;-82
2023/05/20 11:28:43;;;;;;;3.08;2.67;;;;;;;;;;12719530;23;20418;-82
2023/05/20 11:33:47;;;;;;;3.08;2.63;;;;;;;;;;12716776;23;20029;-82
2023/05/20 11:38:52;;;;;;;5.45;3.35;;;;;;;;;;12718063;23;20048;-81
2023/05/20 11:43:58;;;;;;;3.55;2.25;;;;;;;;;;12727765;23;20045;-82
2023/05/20 11:49:03;;;;;;;4.47;2.90;;;;;;;;;;12722180;23;20117;-84
2023/05/20 11:54:07;;;;;;;3.70;3.30;;;;;;;;;;12727349;23;20026;-84
2023/05/20 11:59:11;;;;;;;4.55;2.90;;;;;;;;;;12720248;23;20029;-86
2023/05/20 12:04:17;;;;;;;3.92;3.03;;;;;;;;;;12719792;23;20018;-85
2023/05/20 12:09:21;;;;;;;2.40;2.20;;;;;;;;;;12722242;23;20022;-84
2023/05/20 12:14:24;;;;;;;2.60;2.35;;;;;;;;;;12722225;23;20024;-87
2023/05/20 12:19:29;;;;;;;3.13;2.30;;;;;;;;;;12720287;23;20022;-84
2023/05/20 12:24:32;;;;;;;5.00;2.97;;;;;;;;;;12720728;23;20508;-84
2023/05/20 12:29:36;;;;;;;4.20;3.65;;;;;;;;;;12721566;23;20029;-85
2023/05/20 12:34:40;;;;;;;4.18;3.40;;;;;;;;;;12722067;23;20028;-84
2023/05/20 12:39:44;;;;;;;4.78;3.65;;;;;;;;;;12725396;23;20369;-84
2023/05/20 12:44:47;;;;;;;3.08;2.53;;;;;;;;;;12725081;23;20024;-83
2023/05/20 12:49:52;;;;;;;5.43;2.75;;;;;;;;;;12726310;23;20030;-85
2023/05/20 12:54:56;;;;;;;3.53;2.85;;;;;;;;;;12728224;23;20029;-85
2023/05/20 12:59:59;;;;;;;3.58;3.28;;;;;;;;;;12726186;23;20021;-86
2023/05/20 13:05:05;;;;;;;5.13;3.88;;;;;;;;;;12726029;23;20029;-84
2023/05/20 13:10:10;;;;;;;4.28;2.92;;;;;;;;;;12731123;23;20029;-85
2023/05/20 13:15:13;;;;;;;4.90;4.20;;;;;;;;;;12733093;23;20076;-87
2023/05/20 13:20:18;;;;;;;4.63;3.70;;;;;;;;;;12729122;23;20026;-91
2023/05/20 13:25:22;;;;;;;5.40;4.63;;;;;;;;;;12732650;23;20437;-85
2023/05/20 13:30:27;;;;;;;6.47;3.25;;;;;;;;;;12728792;23;20228;-88
2023/05/20 13:35:31;;;;;;;4.43;3.22;;;;;;;;;;12724600;23;20025;-88
2023/05/20 13:40:35;;;;;;;5.82;4.00;;;;;;;;;;12723255;23;20461;-86
2023/05/20 13:45:38;;;;;;;4.07;3.03;;;;;;;;;;12722910;23;20390;-90
2023/05/20 13:50:43;;;;;;;5.10;4.13;;;;;;;;;;12746062;23;20032;-86
2023/05/20 13:55:46;;;;;;;3.42;2.72;;;;;;;;;;12723860;23;20041;-86
2023/05/20 14:00:49;;;;;;;3.42;3.00;;;;;;;;;;12743187;23;20041;-89
2023/05/20 14:05:54;;;;;;;5.63;4.28;;;;;;;;;;12722773;23;20021;-86
2023/05/20 14:10:58;;;;;;;3.05;2.65;;;;;;;;;;12745694;23;20021;-85
2023/05/20 14:16:01;;;;;;;4.22;3.17;;;;;;;;;;12722388;23;20080;-86
2023/05/20 14:21:06;;;;;;;3.33;2.90;;;;;;;;;;12719739;23;20108;-88
2023/05/20 14:26:09;;;;;;;4.07;3.22;;;;;;;;;;12719618;23;20022;-87
2023/05/20 14:31:14;;;;;;;2.67;2.42;;;;;;;;;;12720512;23;20022;-86
2023/05/20 14:36:19;;;;;;;3.80;2.63;;;;;;;;;;12722896;23;20500;-87
2023/05/20 14:41:22;;;;;;;3.70;3.28;;;;;;;;;;12719807;23;20037;-89
2023/05/20 14:46:25;;;;;;;3.15;2.67;;;;;;;;;;12719216;23;20381;-86
2023/05/20 14:51:30;;;;;;;3.28;2.63;;;;;;;;;;12720500;23;20017;-89
2023/05/20 14:56:36;;;;;;;4.57;2.95;;;;;;;;;;12738746;23;20049;-86
2023/05/20 15:01:40;;;;;;;4.65;3.35;;;;;;;;;;12743392;23;20033;-85
2023/05/20 15:06:45;;;;;;;3.55;2.80;;;;;;;;;;12720149;23;20045;-90
2023/05/20 15:11:48;;;;;;;3.75;3.13;;;;;;;;;;12719609;23;20021;-88
2023/05/20 15:16:52;;;;;;;2.78;2.45;;;;;;;;;;12721861;23;20026;-86
2023/05/20 15:21:56;;;;;;;3.22;2.80;;;;;;;;;;12717816;23;20025;-86
2023/05/20 15:27:00;;;;;;;4.55;2.85;;;;;;;;;;12738458;23;20025;-85
2023/05/20 15:32:03;;;;;;;2.97;2.67;;;;;;;;;;12720997;23;20025;-86
2023/05/20 15:37:08;;;;;;;3.10;2.45;;;;;;;;;;12720740;23;20029;-85
2023/05/20 15:42:12;;;;;;;3.30;2.92;;;;;;;;;;12719727;23;20427;-85
2023/05/20 15:47:16;;;;;;;3.80;2.92;;;;;;;;;;12722820;23;20044;-85
2023/05/20 15:52:21;;;;;;;3.40;2.75;;;;;;;;;;12728283;23;20461;-85
2023/05/20 15:57:24;;;;;;;2.80;2.42;;;;;;;;;;12740350;23;20435;-85
2023/05/20 16:02:29;;;;;;;3.38;2.60;;;;;;;;;;12731972;23;20037;-85
2023/05/20 16:07:34;;;;;;;5.10;3.17;;;;;;;;;;12732760;23;20018;-85
2023/05/20 16:12:37;;;;;;;3.08;2.58;;;;;;;;;;12720481;23;20033;-85
2023/05/20 16:17:41;;;;;;;2.67;2.30;;;;;;;;;;12724731;23;20614;-85
2023/05/20 16:22:48;;;;;;;3.20;2.40;;;;;;;;;;12724365;23;20104;-85
2023/05/20 16:27:51;;;;;;;4.35;3.30;;;;;;;;;;12727473;23;20322;-84
2023/05/20 16:32:55;;;;;;;3.15;2.70;;;;;;;;;;12725925;23;20084;-84
2023/05/20 16:38:00;;;;;;;3.42;2.78;;;;;;;;;;12724707;23;20034;-85
2023/05/20 16:43:03;;;;;;;4.40;3.60;;;;;;;;;;12736439;23;20037;-85
2023/05/20 16:48:06;;;;;;;2.50;2.20;;;;;;;;;;12724084;23;20024;-85
2023/05/20 16:53:11;;;;;;;2.40;2.05;;;;;;;;;;12747275;23;20083;-84
2023/05/20 16:58:15;;;;;;;3.70;2.60;;;;;;;;;;12733853;23;20025;-84
2023/05/20 17:03:19;;;;;;;3.03;2.45;;;;;;;;;;12724567;23;20353;-82
2023/05/20 17:08:24;;;;;;;2.33;2.13;;;;;;;;;;12724944;23;20013;-83
2023/05/20 17:13:27;;;;;;;3.85;2.60;;;;;;;;;;12719251;23;20045;-83
2023/05/20 17:18:31;;;;;;;3.38;2.70;;;;;;;;;;12731494;23;20017;-83
2023/05/20 17:23:35;;;;;;;3.88;2.80;;;;;;;;;;12716180;23;20025;-84
2023/05/20 17:28:39;;;;;;;2.72;2.53;;;;;;;;;;12717375;23;20052;-83
2023/05/20 17:33:42;;;;;;;3.00;2.33;;;;;;;;;;12728530;23;20041;-83
2023/05/20 17:38:47;;;;;;;4.03;2.53;;;;;;;;;;12729765;23;20033;-83
2023/05/20 17:43:50;;;;;;;4.35;2.67;;;;;;;;;;12719301;23;20017;-82
2023/05/20 17:48:53;;;;;;;3.28;2.78;;;;;;;;;;12718680;23;20018;-83
2023/05/20 17:53:58;;;;;;;3.88;3.47;;;;;;;;;;12728670;23;20466;-83
2023/05/20 17:59:01;;;;;;;5.32;3.00;;;;;;;;;;12719025;23;20382;-83
2023/05/20 18:04:05;;;;;;;3.22;2.58;;;;;;;;;;12720658;23;20045;-83
2023/05/20 18:09:10;;;;;;;3.75;2.75;;;;;;;;;;12726745;23;20043;-83
2023/05/20 18:14:13;;;;;;;4.85;3.05;;;;;;;;;;12719006;23;20022;-83
2023/05/20 18:19:16;;;;;;;3.33;2.67;;;;;;;;;;12717762;23;20021;-83
2023/05/20 18:24:21;;;;;;;2.75;2.45;;;;;;;;;;12725422;23;20068;-83
2023/05/20 18:29:25;;;;;;;2.97;2.38;;;;;;;;;;12724832;23;20041;-83
2023/05/20 18:34:31;;;;;;;3.22;2.65;;;;;;;;;;12720250;23;20131;-83
2023/05/20 18:39:36;;;;;;;;;;;;;;;;;;12719710;23;20045;-83
2023/05/20 18:44:39;;;;;;;3.63;2.88;;;;;;;;;;12719021;23;19921;-83
2023/05/20 18:49:42;;;;;;;4.38;2.70;;;;;;;;;;12717929;23;20045;-83
2023/05/20 18:54:47;;;;;;;12.05;2.65;;;;;;;;;;12717300;23;20053;-83
2023/05/20 18:59:50;;;;;;;3.38;2.38;;;;;;;;;;12719673;23;20439;-83
2023/05/20 19:04:54;;;;;;;3.33;2.80;;;;;;;;;;12717978;23;20029;-83
2023/05/20 19:09:58;;;;;;;3.60;3.05;;;;;;;;;;12717958;23;20342;-83
2023/05/20 19:15:03;;;;;;;4.90;3.47;;;;;;;;;;12717519;23;20089;-85
2023/05/20 19:20:09;;;;;;;2.97;2.67;;;;;;;;;;12723263;23;20026;-86
2023/05/20 19:25:14;;;;;;;3.37;2.60;;;;;;;;;;12720709;23;20021;-85
2023/05/20 19:30:17;;;;;;;4.00;2.95;;;;;;;;;;12717808;23;20021;-85
2023/05/20 19:35:20;;;;;;;3.78;2.65;;;;;;;;;;12717180;23;20025;-85
2023/05/20 19:40:25;;;;;;;3.50;3.03;;;;;;;;;;12718071;23;20448;-85
2023/05/20 19:45:29;;;;;;;3.47;2.92;;;;;;;;;;12719601;23;20040;-85
2023/05/20 19:50:32;;;;;;;3.35;2.70;;;;;;;;;;12716937;23;20045;-84
2023/05/20 19:55:38;;;;;;;4.05;3.05;;;;;;;;;;12719967;23;20080;-84
2023/05/20 20:00:41;;;;;;;3.93;3.27;;;;;;;;;;12718743;23;20088;-86
2023/05/20 20:05:44;;;;;;;3.70;3.30;;;;;;;;;;12739703;23;20611;-85
2023/05/20 20:10:49;;;;;;;3.47;2.78;;;;;;;;;;12718032;23;20018;-86
2023/05/20 20:15:52;;;;;;;3.80;2.85;;;;;;;;;;12719799;23;20022;-85
2023/05/20 20:20:58;;;;;;;3.63;3.00;;;;;;;;;;12716216;23;20099;-85
2023/05/20 20:26:03;;;;;;;4.80;3.22;;;;;;;;;;12712468;23;20021;-83
2023/05/20 20:31:06;;;;;;;4.68;3.03;;;;;;;;;;12715760;23;20037;-84
2023/05/20 20:36:10;;;;;;;4.43;3.13;;;;;;;;;;12719299;23;20064;-84
2023/05/20 20:41:15;;;;;;;3.47;3.17;;;;;;;;;;12716435;23;20084;-83
2023/05/20 20:46:18;;;;;;;4.40;3.63;;;;;;;;;;12719355;23;20028;-83
2023/05/20 20:51:22;;;;;;;3.85;3.38;;;;;;;;;;12718226;23;20304;-83
2023/05/20 20:56:26;;;;;;;3.40;3.10;;;;;;;;;;12719421;23;20048;-83
2023/05/20 21:01:30;;;;;;;3.72;3.20;;;;;;;;;;12719965;23;20025;-84
2023/05/20 21:06:33;;;;;;;4.38;3.63;;;;;;;;;;12724032;23;20025;-83
2023/05/20 21:11:40;;;;;;;4.72;3.25;;;;;;;;;;12722037;23;20105;-83
2023/05/20 21:16:44;;;;;;;5.18;3.78;;;;;;;;;;12720901;23;20022;-83
2023/05/20 21:21:47;;;;;;;5.13;3.83;;;;;;;;;;12718670;23;20393;-83
2023/05/20 21:26:52;;;;;;;5.18;3.72;;;;;;;;;;12721643;23;20032;-83
2023/05/20 21:31:55;;;;;;;4.80;3.53;;;;;;;;;;12733254;23;20030;-85
2023/05/20 21:36:58;;;;;;;5.80;3.78;;;;;;;;;;12720185;23;20178;-85
2023/05/20 21:42:03;;;;;;;4.22;3.58;;;;;;;;;;12722591;23;20862;-84
2023/05/20 21:47:07;;;;;;;4.55;3.50;;;;;;;;;;12717566;23;20084;-84
2023/05/20 21:52:10;;;;;;;4.68;3.85;;;;;;;;;;12712340;23;20084;-85
2023/05/20 21:57:15;;;;;;;4.28;3.65;;;;;;;;;;12722881;23;20037;-85
2023/05/20 22:02:18;;;;;;;4.40;3.55;;;;;;;;;;12724161;23;20025;-85
2023/05/20 22:07:21;;;;;;;4.78;3.58;;;;;;;;;;12719880;23;20060;-83
2023/05/20 22:12:28;;;;;;;5.32;3.80;;;;;;;;;;12717699;23;20030;-84
2023/05/20 22:17:32;;;;;;;;;;;;;;;;;;12716747;23;20041;-83
2023/05/20 22:22:37;;;;;;;4.55;3.15;;;;;;;;;;12715495;23;20071;-83
2023/05/20 22:27:42;;;;;;;3.58;3.20;;;;;;;;;;12714102;23;20049;-83
2023/05/20 22:32:45;;;;;;;5.95;3.92;;;;;;;;;;12718595;23;20052;-83
2023/05/20 22:37:49;;;;;;;3.83;3.42;;;;;;;;;;12717128;23;20040;-83
2023/05/20 22:42:54;;;;;;;5.35;4.45;;;;;;;;;;12716037;23;20480;-83
2023/05/20 22:47:57;;;;;;;4.10;3.63;;;;;;;;;;12713960;23;20033;-83
2023/05/20 22:53:00;;;;;;;4.95;3.80;;;;;;;;;;12728131;23;20642;-83
2023/05/20 22:58:06;;;;;;;4.75;3.65;;;;;;;;;;12718727;23;20056;-83
2023/05/20 23:03:10;;;;;;;5.20;4.22;;;;;;;;;;12716108;23;20021;-83
2023/05/20 23:08:14;;;;;;;4.65;3.92;;;;;;;;;;12762243;23;20104;-83
2023/05/20 23:13:18;;;;;;;4.65;3.63;;;;;;;;;;12769939;23;20053;-83
2023/05/20 23:18:22;;;;;;;6.68;3.90;;;;;;;;;;12774915;23;20064;-83
2023/05/20 23:23:25;;;;;;;4.10;3.50;;;;;;;;;;12775466;23;20048;-83
2023/05/20 23:28:33;;;;;;;5.00;3.70;;;;;;;;;;12774505;23;20493;-83
2023/05/20 23:33:37;;;;;;;4.97;4.07;;;;;;;;;;12773970;23;20048;-82
2023/05/20 23:38:40;;;;;;;4.97;3.47;;;;;;;;;;12775873;23;20052;-83
2023/05/20 23:43:45;;;;;;;5.30;3.95;;;;;;;;;;12773173;23;20036;-82
2023/05/20 23:48:48;;;;;;;6.03;4.32;;;;;;;;;;12773983;23;20104;-83
2023/05/20 23:53:52;;;;;;;5.15;3.88;;;;;;;;;;12775067;23;20021;-83
2023/05/20 23:58:57;;;;;;;5.82;4.35;;;;;;;;;;12774027;23;20040;-83
